createdAt,value
2023-03-04T00:03:02.742Z,76.07
2023-03-04T00:13:05.880Z,76.37
2023-03-04T00:23:08.968Z,76.60
2023-03-04T00:33:12.021Z,76.98
2023-03-04T00:43:15.160Z,77.21
2023-03-04T00:53:18.145Z,77.13
2023-03-04T01:03:21.461Z,77.91
2023-03-04T01:13:25.526Z,77.99
2023-03-04T01:23:28.615Z,78.09
2023-03-04T01:33:32.606Z,78.32
2023-03-04T01:43:38.059Z,78.71
2023-03-04T01:53:42.238Z,78.63
2023-03-04T02:03:45.404Z,78.46
2023-03-04T02:13:48.589Z,78.24
2023-03-04T02:24:02.005Z,78.63
2023-03-04T02:34:18.296Z,78.31
2023-03-04T02:44:26.299Z,78.20
2023-03-04T02:54:30.533Z,78.47
2023-03-04T03:04:36.718Z,78.32
2023-03-04T03:14:44.370Z,78.04
2023-03-04T03:24:47.952Z,78.12
2023-03-04T03:34:51.234Z,77.93
2023-03-04T03:44:56.747Z,77.79
2023-03-04T03:55:02.258Z,77.90
2023-03-04T04:05:06.194Z,77.44
2023-03-04T04:15:11.981Z,77.63
2023-03-04T04:25:15.133Z,77.86
2023-03-04T04:35:18.369Z,78.03
2023-03-04T04:45:21.502Z,78.04
2023-03-04T04:55:24.621Z,77.95
2023-03-04T05:05:27.596Z,77.66
2023-03-04T05:15:30.859Z,77.76
2023-03-04T05:25:33.933Z,77.62
2023-03-04T05:35:38.579Z,77.53
2023-03-04T05:45:42.255Z,78.11
2023-03-04T05:55:48.847Z,78.05
2023-03-04T06:05:51.927Z,78.87
2023-03-04T06:15:57.003Z,79.14
2023-03-04T06:26:01.931Z,79.25
2023-03-04T06:36:05.566Z,79.60
2023-03-04T06:46:09.562Z,80.26
2023-03-04T06:56:16.404Z,78.75
2023-03-04T07:06:23.477Z,77.54
2023-03-04T07:16:27.230Z,75.85
2023-03-04T07:26:31.502Z,73.86
2023-03-04T07:36:37.064Z,72.23
2023-03-04T07:46:40.851Z,70.49
2023-03-04T07:56:43.920Z,69.99
2023-03-04T08:06:48.989Z,69.68
2023-03-04T08:16:52.122Z,68.97
2023-03-04T08:26:55.426Z,67.55
2023-03-04T08:36:58.640Z,67.33
2023-03-04T08:47:01.765Z,66.31
2023-03-04T08:57:04.994Z,65.86
2023-03-04T09:07:10.666Z,66.04
2023-03-04T09:17:13.795Z,64.80
2023-03-04T09:27:16.913Z,64.84
2023-03-04T09:37:20.092Z,64.91
2023-03-04T09:47:26.301Z,64.93
2023-03-04T09:57:59.438Z,65.79
2023-03-04T10:08:38.468Z,66.87
2023-03-04T10:18:48.941Z,66.84
2023-03-04T10:28:52.374Z,68.05
2023-03-04T10:39:08.369Z,67.35
2023-03-04T10:49:16.554Z,66.66
2023-03-04T10:59:46.391Z,65.79
2023-03-04T11:09:49.641Z,64.95
2023-03-04T11:19:58.548Z,66.22
2023-03-04T11:30:40.175Z,65.68
2023-03-04T11:40:54.074Z,64.83
2023-03-04T11:51:13.087Z,64.03
2023-03-04T12:01:38.270Z,63.87
2023-03-04T12:12:19.622Z,64.85
2023-03-04T12:22:42.737Z,64.63
2023-03-04T12:32:57.943Z,64.65
2023-03-04T12:43:28.385Z,65.08
2023-03-04T12:53:58.035Z,65.41
2023-03-04T13:04:23.746Z,65.88
2023-03-04T13:14:28.895Z,65.89
2023-03-04T13:24:46.725Z,66.00
2023-03-04T13:34:56.181Z,66.29
2023-03-04T13:45:00.442Z,66.20
2023-03-04T13:55:35.491Z,66.28
2023-03-04T14:05:38.570Z,66.52
2023-03-04T14:15:41.721Z,66.72
2023-03-04T14:25:45.239Z,66.51
2023-03-04T14:35:51.725Z,67.05
2023-03-04T14:45:58.344Z,67.14
2023-03-04T14:56:10.879Z,67.66
2023-03-04T15:06:35.263Z,67.77
2023-03-04T15:16:57.994Z,67.96
2023-03-04T15:27:04.337Z,68.15
2023-03-04T15:37:10.126Z,68.32
2023-03-04T15:47:14.154Z,68.49
2023-03-04T15:57:28.021Z,68.30
2023-03-04T16:07:31.655Z,68.06
2023-03-04T16:17:34.680Z,68.13
2023-03-04T16:27:39.607Z,68.30
2023-03-04T16:37:44.956Z,68.08
2023-03-04T16:47:48.229Z,68.25
2023-03-04T16:57:52.389Z,68.19
2023-03-04T17:07:55.651Z,67.73
2023-03-04T17:17:58.653Z,67.52
2023-03-04T17:28:01.940Z,67.74
2023-03-04T17:38:05.049Z,67.76
2023-03-04T17:48:15.340Z,67.73
2023-03-04T17:58:18.879Z,67.72
2023-03-04T18:08:24.156Z,67.94
2023-03-04T18:18:27.319Z,68.19
2023-03-04T18:28:31.391Z,68.10
2023-03-04T18:38:34.826Z,68.15
2023-03-04T18:48:45.687Z,67.73
2023-03-04T18:58:50.665Z,68.32
2023-03-04T19:08:55.548Z,68.59
2023-03-04T19:18:58.692Z,68.81
2023-03-04T19:29:02.035Z,69.84
2023-03-04T19:39:07.286Z,70.79
2023-03-04T19:49:10.452Z,70.53
2023-03-04T19:59:14.802Z,70.19
2023-03-04T20:09:19.583Z,70.40
2023-03-04T20:19:25.088Z,70.97
2023-03-04T20:29:29.089Z,71.18
2023-03-04T20:49:59.993Z,70.90
2023-03-04T21:00:08.295Z,70.90
2023-03-04T21:10:11.387Z,71.06
2023-03-04T21:20:15.449Z,71.09
2023-03-04T21:30:18.572Z,71.21
2023-03-04T21:40:21.609Z,71.50
2023-03-04T21:50:24.777Z,71.65
2023-03-04T22:00:27.812Z,71.95
2023-03-04T22:10:32.208Z,72.05
2023-03-04T22:20:37.171Z,72.07
2023-03-04T22:30:40.177Z,72.40
2023-03-04T22:40:43.353Z,72.61
2023-03-04T22:50:46.600Z,73.40
2023-03-04T23:00:49.659Z,73.86
2023-03-04T23:10:55.829Z,73.80
2023-03-04T23:20:59.124Z,72.26
2023-03-04T23:31:04.325Z,70.60
2023-03-04T23:41:12.944Z,70.26
2023-03-04T23:51:17.091Z,69.66
